createdAt,value
2022-11-24T00:00:04.359Z,20.9
2022-11-24T00:01:04.238Z,20.9
2022-11-24T00:02:04.417Z,20.9
2022-11-24T00:03:04.293Z,20.9
2022-11-24T00:04:04.226Z,20.8
2022-11-24T00:05:04.267Z,20.8
2022-11-24T00:06:04.219Z,20.8
2022-11-24T00:07:04.228Z,20.8
2022-11-24T00:08:04.219Z,20.8
2022-11-24T00:09:04.241Z,20.7
2022-11-24T00:10:04.239Z,20.7
2022-11-24T00:11:04.257Z,20.7
2022-11-24T00:12:04.221Z,20.7
2022-11-24T00:13:04.218Z,20.7
2022-11-24T00:14:04.225Z,20.6
2022-11-24T00:15:04.219Z,20.6
2022-11-24T00:17:35.157Z,20.3
2022-11-24T00:18:03.849Z,20.5
2022-11-24T00:19:04.605Z,20.5
2022-11-24T00:20:03.823Z,20.5
2022-11-24T00:21:03.833Z,20.5
2022-11-24T00:22:03.823Z,20.5
2022-11-24T00:23:10.582Z,20.4
2022-11-24T00:24:11.047Z,20.4
2022-11-24T00:25:03.795Z,20.5
2022-11-24T00:26:04.006Z,20.5
2022-11-24T00:27:03.795Z,20.5
2022-11-24T00:28:10.517Z,20.4
2022-11-24T00:29:04.268Z,20.4
2022-11-24T00:30:04.279Z,20.4
2022-11-24T00:31:04.324Z,20.4
2022-11-24T00:32:04.280Z,20.4
2022-11-24T00:33:04.269Z,20.4
2022-11-24T00:34:04.328Z,20.4
2022-11-24T00:35:04.283Z,20.4
2022-11-24T00:36:04.334Z,20.4
2022-11-24T00:37:04.279Z,20.3
2022-11-24T00:38:04.299Z,20.3
2022-11-24T00:39:04.277Z,20.3
2022-11-24T00:40:04.354Z,20.3
2022-11-24T00:41:04.294Z,20.3
2022-11-24T00:42:04.282Z,20.3
2022-11-24T00:43:04.271Z,20.3
2022-11-24T00:44:04.277Z,20.3
2022-11-24T00:45:13.172Z,20.3
2022-11-24T00:46:04.445Z,20.3
2022-11-24T00:47:04.436Z,20.3
2022-11-24T00:48:04.293Z,20.2
2022-11-24T00:49:04.280Z,20.2
2022-11-24T00:50:04.295Z,20.2
2022-11-24T00:51:04.303Z,20.2
2022-11-24T00:52:04.318Z,20.2
2022-11-24T00:53:04.332Z,20.2
2022-11-24T00:54:04.288Z,20.2
2022-11-24T00:55:04.285Z,20.2
2022-11-24T00:56:04.336Z,20.2
2022-11-24T00:57:04.300Z,20.2
2022-11-24T00:58:04.376Z,20.2
2022-11-24T00:59:04.279Z,20.1
2022-11-24T01:00:04.302Z,20.1
2022-11-24T01:01:04.321Z,20.1
2022-11-24T01:02:04.381Z,20.1
2022-11-24T01:03:04.331Z,20.1
2022-11-24T01:04:04.782Z,20.1
2022-11-24T01:05:04.530Z,20.1
2022-11-24T01:06:04.289Z,20.1
2022-11-24T01:07:04.298Z,20.1
2022-11-24T01:08:04.297Z,20.1
2022-11-24T01:09:04.285Z,20.1
2022-11-24T01:10:04.372Z,20.0
2022-11-24T01:11:04.306Z,20.0
2022-11-24T01:12:04.443Z,20.0
2022-11-24T01:13:04.294Z,20.0
2022-11-24T01:15:35.919Z,19.7
2022-11-24T01:16:04.004Z,19.9
2022-11-24T01:17:03.817Z,19.9
2022-11-24T01:18:03.826Z,20.0
2022-11-24T01:19:03.850Z,20.0
2022-11-24T01:20:03.902Z,20.0
2022-11-24T01:21:08.517Z,20.0
2022-11-24T01:22:03.849Z,19.9
2022-11-24T01:23:03.849Z,19.9
2022-11-24T01:24:03.932Z,19.9
2022-11-24T01:25:03.830Z,19.9
2022-11-24T01:26:03.890Z,19.9
2022-11-24T01:27:03.872Z,19.9
2022-11-24T01:28:03.826Z,19.9
2022-11-24T01:29:03.851Z,19.9
2022-11-24T01:30:03.848Z,19.9
2022-11-24T01:31:03.934Z,19.9
2022-11-24T01:32:03.878Z,19.9
2022-11-24T01:33:03.875Z,19.9
2022-11-24T01:34:03.832Z,19.9
2022-11-24T01:35:03.850Z,19.8
2022-11-24T01:36:03.842Z,19.8
2022-11-24T01:37:03.957Z,19.8
2022-11-24T01:38:03.959Z,19.8
2022-11-24T01:39:03.997Z,19.8
2022-11-24T01:40:03.951Z,19.8
2022-11-24T01:41:04.090Z,19.8
2022-11-24T01:42:03.971Z,19.8
2022-11-24T01:43:03.945Z,19.8
2022-11-24T01:44:03.934Z,19.8
2022-11-24T01:45:04.000Z,19.8
2022-11-24T01:46:03.972Z,19.8
2022-11-24T01:47:03.951Z,19.8
2022-11-24T01:48:03.856Z,19.8
2022-11-24T01:49:03.850Z,19.8
2022-11-24T01:50:03.853Z,19.7
2022-11-24T01:51:03.891Z,19.7
2022-11-24T01:52:03.849Z,19.7
2022-11-24T01:53:03.837Z,19.7
2022-11-24T01:54:03.842Z,19.7
2022-11-24T01:55:04.775Z,19.7
2022-11-24T01:56:03.859Z,19.7
2022-11-24T01:57:04.286Z,19.7
2022-11-24T01:58:03.960Z,19.7
2022-11-24T01:59:03.850Z,19.7
2022-11-24T02:00:03.836Z,19.7
2022-11-24T02:01:03.896Z,19.7
2022-11-24T02:02:03.909Z,19.7
2022-11-24T02:03:03.908Z,19.7
2022-11-24T02:04:03.833Z,19.7
2022-11-24T02:05:04.100Z,19.7
2022-11-24T02:06:03.840Z,19.7
2022-11-24T02:07:03.847Z,19.6
2022-11-24T02:08:03.853Z,19.6
2022-11-24T02:09:03.894Z,19.6
2022-11-24T02:10:03.832Z,19.6
2022-11-24T02:11:03.841Z,19.6
2022-11-24T02:12:03.869Z,19.6
2022-11-24T02:13:03.851Z,19.6
2022-11-24T02:14:03.857Z,19.6
2022-11-24T02:15:03.867Z,19.6
2022-11-24T02:16:03.911Z,19.6
2022-11-24T02:17:03.863Z,19.6
2022-11-24T02:18:03.858Z,19.6
2022-11-24T02:19:03.848Z,19.6
2022-11-24T02:20:03.892Z,19.5
2022-11-24T02:21:03.945Z,19.5
2022-11-24T02:22:03.851Z,19.5
2022-11-24T02:23:03.863Z,19.5
2022-11-24T02:24:03.845Z,19.5
2022-11-24T02:25:03.847Z,19.5
2022-11-24T02:26:03.840Z,19.5
2022-11-24T02:27:03.911Z,19.5
2022-11-24T02:28:03.840Z,19.5
2022-11-24T02:29:03.853Z,19.5
2022-11-24T02:30:03.844Z,19.5
2022-11-24T02:31:03.915Z,19.5
2022-11-24T02:32:03.841Z,19.5
2022-11-24T02:33:03.903Z,19.5
2022-11-24T02:34:03.865Z,19.5
2022-11-24T02:35:03.844Z,19.5
2022-11-24T02:36:03.842Z,19.5
2022-11-24T02:37:03.846Z,19.5
2022-11-24T02:38:03.849Z,19.4
2022-11-24T02:39:03.892Z,19.4
2022-11-24T02:40:03.859Z,19.4
2022-11-24T02:41:03.857Z,19.4
2022-11-24T02:42:03.849Z,19.4
2022-11-24T02:43:03.920Z,19.4
2022-11-24T02:44:03.862Z,19.4
2022-11-24T02:45:03.917Z,19.4
2022-11-24T02:46:03.915Z,19.4
2022-11-24T02:47:03.863Z,19.4
2022-11-24T02:48:03.853Z,19.4
2022-11-24T02:49:03.855Z,19.4
2022-11-24T02:50:03.903Z,19.4
2022-11-24T02:51:03.888Z,19.4
2022-11-24T02:52:03.992Z,19.4
2022-11-24T02:53:03.855Z,19.4
2022-11-24T02:54:03.880Z,19.3
2022-11-24T02:55:03.866Z,19.4
2022-11-24T02:56:03.859Z,19.3
2022-11-24T02:57:03.887Z,19.3
2022-11-24T02:58:03.849Z,19.3
2022-11-24T02:59:10.658Z,19.2
2022-11-24T03:00:04.440Z,19.3
2022-11-24T03:01:05.103Z,19.3
2022-11-24T03:02:04.495Z,19.3
2022-11-24T03:03:04.444Z,19.3
2022-11-24T03:04:04.385Z,19.3
2022-11-24T03:05:04.399Z,19.3
2022-11-24T03:06:04.395Z,19.3
2022-11-24T03:07:04.401Z,19.3
2022-11-24T03:08:04.433Z,19.3
2022-11-24T03:09:04.402Z,19.3
2022-11-24T03:10:04.383Z,19.3
2022-11-24T03:11:04.411Z,19.3
2022-11-24T03:12:04.408Z,19.3
2022-11-24T03:13:04.400Z,19.3
2022-11-24T03:14:04.412Z,19.3
2022-11-24T03:15:04.386Z,19.3
2022-11-24T03:16:04.436Z,19.3
2022-11-24T03:17:04.390Z,19.3
2022-11-24T03:18:04.428Z,19.3
2022-11-24T03:19:04.397Z,19.3
2022-11-24T03:20:05.137Z,19.3
2022-11-24T03:21:04.407Z,19.3
2022-11-24T03:22:04.389Z,19.3
2022-11-24T03:23:04.391Z,19.2
2022-11-24T03:24:04.488Z,19.2
2022-11-24T03:25:04.399Z,19.2
2022-11-24T03:26:04.438Z,19.2
2022-11-24T03:27:04.395Z,19.2
2022-11-24T03:28:04.400Z,19.2
2022-11-24T03:29:04.409Z,19.2
2022-11-24T03:30:04.445Z,19.2
2022-11-24T03:31:04.443Z,19.2
2022-11-24T03:32:04.449Z,19.2
2022-11-24T03:33:04.395Z,19.2
2022-11-24T03:34:04.406Z,19.2
2022-11-24T03:35:04.392Z,19.2
2022-11-24T03:36:04.406Z,19.2
2022-11-24T03:37:04.405Z,19.2
2022-11-24T03:38:04.443Z,19.2
2022-11-24T03:39:04.463Z,19.2
2022-11-24T03:40:04.452Z,19.2
2022-11-24T03:41:04.399Z,19.1
2022-11-24T03:42:04.420Z,19.2
2022-11-24T03:43:04.403Z,19.1
2022-11-24T03:44:04.445Z,19.1
2022-11-24T03:45:22.809Z,19.1
2022-11-24T03:46:04.443Z,19.1
2022-11-24T03:47:04.409Z,19.1
2022-11-24T03:48:04.400Z,19.1
2022-11-24T03:49:04.452Z,19.1
2022-11-24T03:50:04.447Z,19.1
2022-11-24T03:51:04.431Z,19.1
2022-11-24T03:53:54.511Z,18.8
2022-11-24T03:54:04.467Z,18.9
2022-11-24T03:55:04.235Z,19.0
2022-11-24T03:56:04.331Z,19.1
2022-11-24T03:57:04.230Z,19.1
2022-11-24T03:58:04.232Z,19.1
2022-11-24T03:59:04.228Z,19.1
2022-11-24T04:00:04.244Z,19.1
2022-11-24T04:01:04.249Z,19.1
2022-11-24T04:02:04.386Z,19.1
2022-11-24T04:03:04.368Z,19.1
2022-11-24T04:04:04.235Z,19.1
2022-11-24T04:05:04.234Z,19.1
2022-11-24T04:06:04.256Z,19.1
2022-11-24T04:07:04.241Z,19.1
2022-11-24T04:08:04.258Z,19.1
2022-11-24T04:09:04.227Z,19.1
2022-11-24T04:10:04.247Z,19.1
2022-11-24T04:11:04.232Z,19.1
2022-11-24T04:12:04.241Z,19.1
2022-11-24T04:13:04.243Z,19.1
2022-11-24T04:14:06.700Z,19.1
2022-11-24T04:15:04.233Z,19.1
2022-11-24T04:16:04.258Z,19.1
2022-11-24T04:17:04.242Z,19.1
2022-11-24T04:18:04.228Z,19.1
2022-11-24T04:19:04.232Z,19.0
2022-11-24T04:20:04.298Z,19.0
2022-11-24T04:21:04.240Z,19.1
2022-11-24T04:22:05.583Z,19.0
2022-11-24T04:23:04.251Z,19.0
2022-11-24T04:24:04.363Z,19.0
2022-11-24T04:25:04.234Z,19.0
2022-11-24T04:26:04.292Z,19.0
2022-11-24T04:27:04.281Z,19.0
2022-11-24T04:28:04.254Z,19.0
2022-11-24T04:29:04.248Z,19.0
2022-11-24T04:30:04.250Z,19.0
2022-11-24T04:31:04.324Z,19.0
2022-11-24T04:32:04.315Z,19.0
2022-11-24T04:33:04.245Z,19.0
2022-11-24T04:34:04.290Z,19.0
2022-11-24T04:35:04.232Z,19.0
2022-11-24T04:36:04.246Z,19.0
2022-11-24T04:37:04.244Z,19.0
2022-11-24T04:38:04.286Z,19.0
2022-11-24T04:39:24.292Z,19.0
2022-11-24T04:40:04.250Z,19.0
2022-11-24T04:42:38.205Z,18.7
2022-11-24T04:43:06.409Z,18.8
2022-11-24T04:44:04.427Z,18.9
2022-11-24T04:45:04.444Z,18.9
2022-11-24T04:46:04.489Z,18.9
2022-11-24T04:47:04.430Z,18.9
2022-11-24T04:48:04.464Z,19.0
2022-11-24T04:49:04.517Z,19.0
2022-11-24T04:50:04.446Z,19.0
2022-11-24T04:51:04.433Z,19.0
2022-11-24T04:52:04.448Z,19.0
2022-11-24T04:53:04.439Z,18.9
2022-11-24T04:54:04.450Z,18.9
2022-11-24T04:55:04.478Z,18.9
2022-11-24T04:56:04.436Z,19.0
2022-11-24T04:57:04.445Z,19.0
2022-11-24T04:58:04.450Z,19.1
2022-11-24T04:59:08.208Z,19.1
2022-11-24T05:00:04.432Z,19.1
2022-11-24T05:01:04.469Z,19.2
2022-11-24T05:02:04.503Z,19.2
2022-11-24T05:03:04.431Z,19.2
2022-11-24T05:04:04.482Z,19.3
2022-11-24T05:05:04.502Z,19.3
2022-11-24T05:06:04.437Z,19.3
2022-11-24T05:07:04.491Z,19.4
2022-11-24T05:08:04.513Z,19.4
2022-11-24T05:09:04.471Z,19.4
2022-11-24T05:10:04.456Z,19.5
2022-11-24T05:11:04.445Z,19.5
2022-11-24T05:12:04.445Z,19.6
2022-11-24T05:13:04.510Z,19.6
2022-11-24T05:14:04.448Z,19.6
2022-11-24T05:15:04.489Z,19.7
2022-11-24T05:16:04.477Z,19.7
2022-11-24T05:17:04.470Z,19.8
2022-11-24T05:18:04.438Z,19.8
2022-11-24T05:19:04.500Z,19.8
2022-11-24T05:20:04.469Z,19.9
2022-11-24T05:21:05.609Z,19.9
2022-11-24T05:22:04.443Z,20.0
2022-11-24T05:23:04.471Z,20.0
2022-11-24T05:24:04.445Z,20.1
2022-11-24T05:25:04.485Z,20.1
2022-11-24T05:26:11.125Z,20.1
2022-11-24T05:27:11.331Z,20.1
2022-11-24T05:28:04.479Z,20.2
2022-11-24T05:29:04.409Z,20.3
2022-11-24T05:30:04.397Z,20.3
2022-11-24T05:31:04.487Z,20.3
2022-11-24T05:32:04.390Z,20.4
2022-11-24T05:33:04.425Z,20.4
2022-11-24T05:34:04.405Z,20.4
2022-11-24T05:35:11.158Z,20.4
2022-11-24T05:36:03.829Z,20.5
2022-11-24T05:37:03.879Z,20.5
2022-11-24T05:38:03.830Z,20.6
2022-11-24T05:39:03.844Z,20.6
2022-11-24T05:40:03.839Z,20.6
2022-11-24T05:41:03.934Z,20.6
2022-11-24T05:42:03.839Z,20.7
2022-11-24T05:43:03.932Z,20.7
2022-11-24T05:44:03.832Z,20.7
2022-11-24T05:45:03.868Z,20.7
2022-11-24T05:46:03.821Z,20.7
2022-11-24T05:47:03.924Z,20.7
2022-11-24T05:48:03.823Z,20.7
2022-11-24T05:49:03.876Z,20.7
2022-11-24T05:50:03.852Z,20.7
2022-11-24T05:51:09.009Z,20.8
2022-11-24T05:52:03.822Z,20.8
2022-11-24T05:53:03.847Z,20.7
2022-11-24T05:54:03.846Z,20.7
2022-11-24T05:55:03.895Z,20.7
2022-11-24T05:56:03.825Z,20.7
2022-11-24T05:57:03.877Z,20.7
2022-11-24T05:58:04.202Z,20.7
2022-11-24T05:59:09.433Z,20.7
2022-11-24T06:00:03.829Z,20.7
2022-11-24T06:01:03.894Z,20.7
2022-11-24T06:02:03.897Z,20.8
2022-11-24T06:03:03.957Z,20.8
2022-11-24T06:04:03.836Z,20.8
2022-11-24T06:05:03.865Z,20.9
2022-11-24T06:06:03.831Z,20.9
2022-11-24T06:07:03.893Z,20.9
2022-11-24T06:08:03.852Z,20.9
2022-11-24T06:09:03.852Z,20.9
2022-11-24T06:10:03.842Z,20.9
2022-11-24T06:11:03.879Z,20.9
2022-11-24T06:12:03.866Z,20.9
2022-11-24T06:13:03.979Z,20.9
2022-11-24T06:14:06.981Z,20.9
2022-11-24T06:15:03.873Z,20.9
2022-11-24T06:16:03.917Z,20.9
2022-11-24T06:17:03.868Z,20.8
2022-11-24T06:18:03.828Z,20.8
2022-11-24T06:19:03.899Z,20.7
2022-11-24T06:21:55.045Z,20.4
2022-11-24T06:22:03.785Z,20.4
2022-11-24T06:23:05.612Z,20.6
2022-11-24T06:24:03.801Z,20.5
2022-11-24T06:25:03.801Z,20.5
2022-11-24T06:26:03.797Z,20.5
2022-11-24T06:27:03.752Z,20.5
2022-11-24T06:28:04.838Z,20.5
2022-11-24T06:29:03.797Z,20.5
2022-11-24T06:30:03.844Z,20.5
2022-11-24T06:31:03.786Z,20.5
2022-11-24T06:32:03.870Z,20.5
2022-11-24T06:33:03.777Z,20.4
2022-11-24T06:34:03.794Z,20.4
2022-11-24T06:35:03.772Z,20.4
2022-11-24T06:36:03.821Z,20.4
2022-11-24T06:37:03.816Z,20.4
2022-11-24T06:38:03.795Z,20.4
2022-11-24T06:39:03.766Z,20.4
2022-11-24T06:40:03.801Z,20.4
2022-11-24T06:41:03.802Z,20.3
2022-11-24T06:42:03.788Z,20.3
2022-11-24T06:43:03.826Z,20.3
2022-11-24T06:44:03.802Z,20.3
2022-11-24T06:45:08.565Z,20.3
2022-11-24T06:46:03.957Z,20.3
2022-11-24T06:47:03.787Z,20.3
2022-11-24T06:48:03.800Z,20.3
2022-11-24T06:49:03.810Z,20.2
2022-11-24T06:50:03.817Z,20.2
2022-11-24T06:51:03.772Z,20.2
2022-11-24T06:52:03.855Z,20.2
2022-11-24T06:53:03.825Z,20.2
2022-11-24T06:54:03.860Z,20.2
2022-11-24T06:55:03.800Z,20.2
2022-11-24T06:56:03.799Z,20.2
2022-11-24T06:57:03.837Z,20.3
2022-11-24T06:58:03.765Z,20.3
2022-11-24T06:59:03.837Z,20.3
2022-11-24T07:00:03.779Z,20.3
2022-11-24T07:01:03.824Z,20.4
2022-11-24T07:02:03.777Z,20.4
2022-11-24T07:03:03.862Z,20.4
2022-11-24T07:04:03.809Z,20.4
2022-11-24T07:05:03.805Z,20.5
2022-11-24T07:06:03.782Z,20.5
2022-11-24T07:07:03.826Z,20.5
2022-11-24T07:08:03.771Z,20.5
2022-11-24T07:09:03.835Z,20.5
2022-11-24T07:10:03.796Z,20.5
2022-11-24T07:11:03.801Z,20.5
2022-11-24T07:12:03.800Z,20.6
2022-11-24T07:13:03.812Z,20.6
2022-11-24T07:14:03.853Z,20.6
2022-11-24T07:15:03.828Z,20.6
2022-11-24T07:16:03.802Z,20.6
2022-11-24T07:17:10.546Z,20.5
2022-11-24T07:18:10.963Z,20.5
2022-11-24T07:19:03.698Z,20.5
2022-11-24T07:20:03.689Z,20.5
2022-11-24T07:21:03.732Z,20.5
2022-11-24T07:22:03.708Z,20.5
2022-11-24T07:23:03.724Z,20.5
2022-11-24T07:24:03.692Z,20.5
2022-11-24T07:25:03.720Z,20.5
2022-11-24T07:26:06.712Z,20.5
2022-11-24T07:27:03.739Z,20.4
2022-11-24T07:28:03.706Z,20.4
2022-11-24T07:29:03.717Z,20.4
2022-11-24T07:30:03.700Z,20.4
2022-11-24T07:31:03.724Z,20.4
2022-11-24T07:32:05.657Z,20.4
2022-11-24T07:33:03.948Z,20.4
2022-11-24T07:34:03.709Z,20.4
2022-11-24T07:35:03.695Z,20.4
2022-11-24T07:36:03.723Z,20.3
2022-11-24T07:37:03.692Z,20.3
2022-11-24T07:38:03.719Z,20.3
2022-11-24T07:39:03.729Z,20.3
2022-11-24T07:40:03.730Z,20.3
2022-11-24T07:41:03.690Z,20.3
2022-11-24T07:42:03.737Z,20.3
2022-11-24T07:43:03.726Z,20.2
2022-11-24T07:44:03.724Z,20.2
2022-11-24T07:45:03.722Z,20.2
2022-11-24T07:46:03.798Z,20.2
2022-11-24T07:47:03.713Z,20.2
2022-11-24T07:48:03.736Z,20.2
2022-11-24T07:49:03.715Z,20.2
2022-11-24T07:50:03.738Z,20.2
2022-11-24T07:51:03.739Z,20.1
2022-11-24T07:52:03.721Z,20.1
2022-11-24T07:53:03.708Z,20.1
2022-11-24T07:54:03.913Z,20.1
2022-11-24T07:55:03.699Z,20.1
2022-11-24T07:56:03.732Z,20.1
2022-11-24T07:57:03.729Z,20.1
2022-11-24T07:58:03.848Z,20.1
2022-11-24T07:59:03.696Z,20.1
2022-11-24T08:00:03.728Z,20.1
2022-11-24T08:01:03.704Z,20.1
2022-11-24T08:02:03.794Z,20.1
2022-11-24T08:03:03.736Z,20.2
2022-11-24T08:04:03.753Z,20.2
2022-11-24T08:05:03.700Z,20.2
2022-11-24T08:06:26.166Z,20.2
2022-11-24T08:07:03.709Z,20.2
2022-11-24T08:08:03.742Z,20.3
2022-11-24T08:09:03.741Z,20.3
2022-11-24T08:10:03.720Z,20.3
2022-11-24T08:11:03.727Z,20.3
2022-11-24T08:13:40.163Z,20.1
2022-11-24T08:14:04.318Z,20.2
2022-11-24T08:15:09.428Z,20.3
2022-11-24T08:16:04.365Z,20.4
2022-11-24T08:17:04.322Z,20.4
2022-11-24T08:18:04.330Z,20.4
2022-11-24T08:19:04.306Z,20.4
2022-11-24T08:20:04.338Z,20.4
2022-11-24T08:21:04.368Z,20.4
2022-11-24T08:22:04.335Z,20.4
2022-11-24T08:23:04.429Z,20.4
2022-11-24T08:24:04.349Z,20.4
2022-11-24T08:25:04.306Z,20.4
2022-11-24T08:26:04.317Z,20.4
2022-11-24T08:27:04.407Z,20.4
2022-11-24T08:28:04.388Z,20.4
2022-11-24T08:29:04.324Z,20.4
2022-11-24T08:30:04.371Z,20.4
2022-11-24T08:31:04.334Z,20.4
2022-11-24T08:32:04.400Z,20.3
2022-11-24T08:33:04.327Z,20.3
2022-11-24T08:34:04.339Z,20.3
2022-11-24T08:35:14.347Z,20.3
2022-11-24T08:36:04.370Z,20.3
2022-11-24T08:37:04.305Z,20.3
2022-11-24T08:38:04.926Z,20.2
2022-11-24T08:39:04.303Z,20.2
2022-11-24T08:40:32.807Z,20.2
2022-11-24T08:41:04.468Z,20.2
2022-11-24T08:42:03.796Z,20.2
2022-11-24T08:43:03.853Z,20.2
2022-11-24T08:44:03.822Z,20.2
2022-11-24T08:45:19.359Z,20.2
2022-11-24T08:46:03.837Z,20.1
2022-11-24T08:47:03.826Z,20.1
2022-11-24T08:48:03.808Z,20.1
2022-11-24T08:49:03.794Z,20.1
2022-11-24T08:50:03.795Z,20.1
2022-11-24T08:51:03.806Z,20.1
2022-11-24T08:52:03.772Z,20.1
2022-11-24T08:53:03.787Z,20.1
2022-11-24T08:54:03.795Z,20.1
2022-11-24T08:55:03.800Z,20.1
2022-11-24T08:56:03.774Z,20.1
2022-11-24T08:57:03.803Z,20.1
2022-11-24T08:58:03.784Z,20.1
2022-11-24T08:59:03.870Z,20.1
2022-11-24T09:00:04.049Z,20.1
2022-11-24T09:01:03.876Z,20.1
2022-11-24T09:02:03.851Z,20.1
2022-11-24T09:03:03.841Z,20.1
2022-11-24T09:04:03.826Z,20.1
2022-11-24T09:05:05.332Z,20.1
2022-11-24T09:06:03.815Z,20.1
2022-11-24T09:07:03.802Z,20.1
2022-11-24T09:08:03.773Z,20.2
2022-11-24T09:09:03.810Z,20.2
2022-11-24T09:10:03.787Z,20.2
2022-11-24T09:11:03.791Z,20.2
2022-11-24T09:12:04.035Z,20.3
2022-11-24T09:13:03.818Z,20.3
2022-11-24T09:14:03.786Z,20.3
2022-11-24T09:15:03.820Z,20.3
2022-11-24T09:16:03.787Z,20.3
2022-11-24T09:17:03.883Z,20.3
2022-11-24T09:18:03.810Z,20.3
2022-11-24T09:19:03.809Z,20.3
2022-11-24T09:20:03.772Z,20.4
2022-11-24T09:21:03.808Z,20.3
2022-11-24T09:22:03.788Z,20.4
2022-11-24T09:23:03.819Z,20.3
2022-11-24T09:24:03.855Z,20.3
2022-11-24T09:25:03.799Z,20.3
2022-11-24T09:26:03.786Z,20.3
2022-11-24T09:27:03.798Z,20.3
2022-11-24T09:28:03.792Z,20.3
2022-11-24T09:29:03.814Z,20.3
2022-11-24T09:30:03.813Z,20.3
2022-11-24T09:31:10.560Z,20.2
2022-11-24T09:32:31.353Z,20.1
2022-11-24T09:33:04.484Z,20.2
2022-11-24T09:34:05.116Z,20.2
2022-11-24T09:35:04.469Z,20.2
2022-11-24T09:36:04.440Z,20.2
2022-11-24T09:37:04.475Z,20.2
2022-11-24T09:38:04.422Z,20.2
2022-11-24T09:39:04.443Z,20.2
2022-11-24T09:40:04.435Z,20.2
2022-11-24T09:41:04.496Z,20.2
2022-11-24T09:42:04.426Z,20.2
2022-11-24T09:43:04.453Z,20.2
2022-11-24T09:44:04.435Z,20.1
2022-11-24T09:45:04.467Z,20.1
2022-11-24T09:46:06.086Z,20.1
2022-11-24T09:47:04.578Z,20.1
2022-11-24T09:48:04.442Z,20.1
2022-11-24T09:49:05.360Z,20.1
2022-11-24T09:50:04.429Z,20.1
2022-11-24T09:51:04.443Z,20.1
2022-11-24T09:52:04.431Z,20.1
2022-11-24T09:53:04.483Z,20.1
2022-11-24T09:54:04.431Z,20.1
2022-11-24T09:55:04.452Z,20.1
2022-11-24T09:56:04.449Z,20.1
2022-11-24T09:57:04.459Z,20.1
2022-11-24T09:58:04.434Z,20.1
2022-11-24T09:59:04.475Z,20.1
2022-11-24T10:00:04.429Z,20.1
2022-11-24T10:01:04.571Z,20.1
2022-11-24T10:02:04.551Z,20.1
2022-11-24T10:03:04.507Z,20.1
2022-11-24T10:04:06.622Z,20.1
2022-11-24T10:05:04.537Z,20.1
2022-11-24T10:06:04.418Z,20.2
2022-11-24T10:07:04.516Z,20.2
2022-11-24T10:08:04.435Z,20.2
2022-11-24T10:09:04.452Z,20.2
2022-11-24T10:10:04.438Z,20.2
2022-11-24T10:11:04.457Z,20.2
2022-11-24T10:12:04.422Z,20.2
2022-11-24T10:13:04.507Z,20.3
2022-11-24T10:14:04.429Z,20.3
2022-11-24T10:15:04.473Z,20.3
2022-11-24T10:16:04.542Z,20.3
2022-11-24T10:17:04.446Z,20.3
2022-11-24T10:18:04.463Z,20.3
2022-11-24T10:19:04.467Z,20.3
2022-11-24T10:20:04.453Z,20.3
2022-11-24T10:21:04.445Z,20.3
2022-11-24T10:22:04.473Z,20.3
2022-11-24T10:23:04.432Z,20.3
2022-11-24T10:24:04.481Z,20.3
2022-11-24T10:25:04.477Z,20.3
2022-11-24T10:27:54.640Z,20.0
2022-11-24T10:28:04.594Z,20.1
2022-11-24T10:29:04.368Z,20.2
2022-11-24T10:30:04.337Z,20.2
2022-11-24T10:31:04.444Z,20.2
2022-11-24T10:32:04.336Z,20.2
2022-11-24T10:33:04.969Z,20.2
2022-11-24T10:34:04.342Z,20.2
2022-11-24T10:35:04.373Z,20.2
2022-11-24T10:36:04.353Z,20.2
2022-11-24T10:37:04.414Z,20.2
2022-11-24T10:38:04.341Z,20.1
2022-11-24T10:39:04.378Z,20.1
2022-11-24T10:40:04.344Z,20.1
2022-11-24T10:41:04.514Z,20.1
2022-11-24T10:42:04.338Z,20.1
2022-11-24T10:43:04.416Z,20.1
2022-11-24T10:44:04.352Z,20.1
2022-11-24T10:45:04.371Z,20.0
2022-11-24T10:46:04.383Z,20.0
2022-11-24T10:47:04.387Z,20.0
2022-11-24T10:48:04.348Z,20.0
2022-11-24T10:49:04.450Z,20.0
2022-11-24T10:50:04.354Z,20.0
2022-11-24T10:51:04.374Z,20.0
2022-11-24T10:52:04.357Z,20.0
2022-11-24T10:53:04.371Z,20.0
2022-11-24T10:54:04.345Z,20.0
2022-11-24T10:55:04.430Z,20.0
2022-11-24T10:56:04.352Z,20.0
2022-11-24T10:57:04.369Z,20.0
2022-11-24T10:58:04.347Z,20.0
2022-11-24T10:59:04.397Z,20.0
2022-11-24T11:00:04.362Z,20.0
2022-11-24T11:01:04.440Z,20.0
2022-11-24T11:02:04.569Z,20.1
2022-11-24T11:03:04.450Z,20.1
2022-11-24T11:04:04.356Z,20.1
2022-11-24T11:05:04.381Z,20.1
2022-11-24T11:06:04.360Z,20.1
2022-11-24T11:07:04.417Z,20.2
2022-11-24T11:08:05.789Z,20.2
2022-11-24T11:09:04.384Z,20.2
2022-11-24T11:10:04.429Z,20.2
2022-11-24T11:11:04.363Z,20.2
2022-11-24T11:12:21.104Z,20.2
2022-11-24T11:13:04.928Z,20.2
2022-11-24T11:14:04.863Z,20.2
2022-11-24T11:15:04.364Z,20.2
2022-11-24T11:16:04.463Z,20.3
2022-11-24T11:17:04.461Z,20.3
2022-11-24T11:18:04.439Z,20.3
2022-11-24T11:19:15.749Z,20.3
2022-11-24T11:20:04.623Z,20.2
2022-11-24T11:21:04.365Z,20.3
2022-11-24T11:22:04.408Z,20.3
2022-11-24T11:23:04.404Z,20.3
2022-11-24T11:24:04.404Z,20.3
2022-11-24T11:25:04.359Z,20.3
2022-11-24T11:26:04.388Z,20.3
2022-11-24T11:27:04.351Z,20.3
2022-11-24T11:28:09.122Z,20.2
2022-11-24T11:31:16.814Z,20.1
2022-11-24T11:34:07.385Z,20.1
2022-11-24T11:35:04.365Z,20.1
2022-11-24T11:36:04.427Z,20.1
2022-11-24T11:37:04.360Z,20.1
2022-11-24T11:38:04.389Z,20.1
2022-11-24T11:39:04.358Z,20.1
2022-11-24T11:40:04.392Z,20.1
2022-11-24T11:41:04.382Z,20.1
2022-11-24T11:42:04.431Z,20.1
2022-11-24T11:43:04.368Z,20.1
2022-11-24T11:44:04.390Z,20.1
2022-11-24T11:45:04.373Z,20.1
2022-11-24T11:46:04.506Z,20.1
2022-11-24T11:47:04.494Z,20.1
2022-11-24T11:48:04.432Z,20.1
2022-11-24T11:49:04.615Z,20.1
2022-11-24T11:50:04.390Z,20.1
2022-11-24T11:51:22.911Z,20.1
2022-11-24T11:52:04.406Z,20.0
2022-11-24T11:53:04.365Z,20.0
2022-11-24T11:54:04.514Z,20.0
2022-11-24T11:55:04.367Z,20.0
2022-11-24T11:56:04.385Z,20.1
2022-11-24T11:57:04.362Z,20.1
2022-11-24T11:58:04.400Z,20.1
2022-11-24T11:59:04.357Z,20.1
2022-11-24T12:00:04.418Z,20.1
2022-11-24T12:01:04.371Z,20.1
2022-11-24T12:02:04.398Z,20.2
2022-11-24T12:03:04.572Z,20.2
2022-11-24T12:04:04.519Z,20.2
2022-11-24T12:05:04.389Z,20.2
2022-11-24T12:06:04.541Z,20.2
2022-11-24T12:07:04.448Z,20.2
2022-11-24T12:08:09.411Z,20.3
2022-11-24T12:09:19.774Z,20.2
2022-11-24T12:10:04.584Z,20.2
2022-11-24T12:11:04.397Z,20.3
2022-11-24T12:12:04.466Z,20.3
2022-11-24T12:13:04.633Z,20.3
2022-11-24T12:14:05.871Z,20.3
2022-11-24T12:15:10.264Z,20.3
2022-11-24T12:16:04.473Z,20.3
2022-11-24T12:17:05.852Z,20.3
2022-11-24T12:18:05.050Z,20.3
2022-11-24T12:19:04.376Z,20.3
2022-11-24T12:20:04.409Z,20.3
2022-11-24T12:21:04.374Z,20.3
2022-11-24T12:22:04.489Z,20.3
2022-11-24T12:23:04.376Z,20.3
2022-11-24T12:24:04.465Z,20.3
2022-11-24T12:25:04.388Z,20.3
2022-11-24T12:26:04.488Z,20.3
2022-11-24T12:27:04.367Z,20.3
2022-11-24T12:28:04.395Z,20.3
2022-11-24T12:29:04.375Z,20.3
2022-11-24T12:30:04.437Z,20.3
2022-11-24T12:31:04.419Z,20.3
2022-11-24T12:32:04.387Z,20.2
2022-11-24T12:33:04.382Z,20.2
2022-11-24T12:34:04.393Z,20.2
2022-11-24T12:35:04.390Z,20.2
2022-11-24T12:36:04.456Z,20.2
2022-11-24T12:37:04.370Z,20.2
2022-11-24T12:38:04.394Z,20.2
2022-11-24T12:39:04.382Z,20.2
2022-11-24T12:40:04.407Z,20.2
2022-11-24T12:41:33.511Z,20.2
2022-11-24T12:42:04.430Z,20.1
2022-11-24T12:43:04.390Z,20.1
2022-11-24T12:44:04.434Z,20.1
2022-11-24T12:45:04.404Z,20.1
2022-11-24T12:46:04.532Z,20.1
2022-11-24T12:47:04.480Z,20.1
2022-11-24T12:48:04.698Z,20.1
2022-11-24T12:49:04.376Z,20.1
2022-11-24T12:50:04.444Z,20.1
2022-11-24T12:51:04.387Z,20.1
2022-11-24T12:52:04.451Z,20.1
2022-11-24T12:53:04.416Z,20.1
2022-11-24T12:54:04.466Z,20.1
2022-11-24T12:55:04.413Z,20.1
2022-11-24T12:56:04.435Z,20.2
2022-11-24T12:57:04.386Z,20.2
2022-11-24T12:58:10.575Z,20.2
2022-11-24T12:59:04.427Z,20.2
2022-11-24T13:00:04.530Z,20.2
2022-11-24T13:01:04.408Z,20.2
2022-11-24T13:02:04.540Z,20.2
2022-11-24T13:03:04.500Z,20.2
2022-11-24T13:05:37.273Z,20.0
2022-11-24T13:06:06.204Z,20.1
2022-11-24T13:07:06.327Z,20.2
2022-11-24T13:08:06.266Z,20.2
2022-11-24T13:09:06.319Z,20.2
2022-11-24T13:10:06.213Z,20.2
2022-11-24T13:11:06.238Z,20.3
2022-11-24T13:12:06.914Z,20.3
2022-11-24T13:13:06.317Z,20.3
2022-11-24T13:14:06.229Z,20.3
2022-11-24T13:15:06.262Z,20.3
2022-11-24T13:16:35.253Z,20.3
2022-11-24T13:17:39.342Z,20.2
2022-11-24T13:18:12.193Z,20.1
2022-11-24T13:19:06.423Z,20.2
2022-11-24T13:20:06.371Z,20.3
2022-11-24T13:21:06.402Z,20.3
2022-11-24T13:22:06.322Z,20.3
2022-11-24T13:23:08.497Z,20.3
2022-11-24T13:24:06.249Z,20.3
2022-11-24T13:25:06.283Z,20.3
2022-11-24T13:26:06.234Z,20.2
2022-11-24T13:27:06.283Z,20.3
2022-11-24T13:28:06.243Z,20.3
2022-11-24T13:29:18.256Z,20.2
2022-11-24T13:30:06.217Z,20.2